sensor_id;sensor_type;location;lat;lon;timestamp;temperature;humidity
10247;DHT22;5168;47.854;7.944;2022-07-29T00:03:47;16.60;99.90
10247;DHT22;5168;47.854;7.944;2022-07-29T00:06:14;16.60;99.90
10247;DHT22;5168;47.854;7.944;2022-07-29T00:08:39;16.70;99.90
10247;DHT22;5168;47.854;7.944;2022-07-29T00:11:05;17.10;99.90
10247;DHT22;5168;47.854;7.944;2022-07-29T00:13:31;16.30;99.90
10247;DHT22;5168;47.854;7.944;2022-07-29T00:15:56;16.40;99.90
10247;DHT22;5168;47.854;7.944;2022-07-29T00:23:14;16.10;99.90
10247;DHT22;5168;47.854;7.944;2022-07-29T00:25:39;16.80;99.90
10247;DHT22;5168;47.854;7.944;2022-07-29T00:28:05;16.90;99.90
10247;DHT22;5168;47.854;7.944;2022-07-29T00:35:23;16.40;99.90
10247;DHT22;5168;47.854;7.944;2022-07-29T00:38:07;16.70;99.90
10247;DHT22;5168;47.854;7.944;2022-07-29T00:45:25;16.60;99.90
10247;DHT22;5168;47.854;7.944;2022-07-29T00:50:17;16.10;99.90
10247;DHT22;5168;47.854;7.944;2022-07-29T00:52:43;16.70;99.90
10247;DHT22;5168;47.854;7.944;2022-07-29T00:55:11;16.30;99.90
10247;DHT22;5168;47.854;7.944;2022-07-29T00:57:38;16.10;99.90
10247;DHT22;5168;47.854;7.944;2022-07-29T01:00:05;16.40;99.90
10247;DHT22;5168;47.854;7.944;2022-07-29T01:02:31;16.40;99.90
10247;DHT22;5168;47.854;7.944;2022-07-29T01:04:57;16.50;99.90
10247;DHT22;5168;47.854;7.944;2022-07-29T01:07:24;16.20;99.90
10247;DHT22;5168;47.854;7.944;2022-07-29T01:09:51;16.20;99.90
10247;DHT22;5168;47.854;7.944;2022-07-29T01:12:20;16.10;99.90
10247;DHT22;5168;47.854;7.944;2022-07-29T01:14:47;15.80;99.90
10247;DHT22;5168;47.854;7.944;2022-07-29T01:17:32;16.40;99.90
10247;DHT22;5168;47.854;7.944;2022-07-29T01:22:37;16.50;99.90
10247;DHT22;5168;47.854;7.944;2022-07-29T01:30:25;16.00;99.90
10247;DHT22;5168;47.854;7.944;2022-07-29T01:32:56;15.60;99.90
10247;DHT22;5168;47.854;7.944;2022-07-29T01:35:28;16.10;99.90
10247;DHT22;5168;47.854;7.944;2022-07-29T01:38:15;16.30;99.90
10247;DHT22;5168;47.854;7.944;2022-07-29T01:40:57;15.70;99.90
10247;DHT22;5168;47.854;7.944;2022-07-29T01:43:31;16.30;99.90
10247;DHT22;5168;47.854;7.944;2022-07-29T01:46:01;16.40;99.90
10247;DHT22;5168;47.854;7.944;2022-07-29T01:48:36;15.50;99.90
10247;DHT22;5168;47.854;7.944;2022-07-29T01:51:20;15.50;99.90
10247;DHT22;5168;47.854;7.944;2022-07-29T01:54:02;15.80;99.90
10247;DHT22;5168;47.854;7.944;2022-07-29T01:56:31;16.30;99.90
10247;DHT22;5168;47.854;7.944;2022-07-29T01:59:01;16.20;99.90
10247;DHT22;5168;47.854;7.944;2022-07-29T02:01:30;15.90;99.90
10247;DHT22;5168;47.854;7.944;2022-07-29T02:03:57;15.80;99.90
10247;DHT22;5168;47.854;7.944;2022-07-29T02:06:25;15.80;99.90
10247;DHT22;5168;47.854;7.944;2022-07-29T02:08:52;16.00;99.90
10247;DHT22;5168;47.854;7.944;2022-07-29T02:13:45;16.10;99.90
10247;DHT22;5168;47.854;7.944;2022-07-29T02:16:13;15.50;99.90
10247;DHT22;5168;47.854;7.944;2022-07-29T02:18:42;15.70;99.90
10247;DHT22;5168;47.854;7.944;2022-07-29T02:21:09;15.70;99.90
10247;DHT22;5168;47.854;7.944;2022-07-29T02:23:37;15.60;99.90
10247;DHT22;5168;47.854;7.944;2022-07-29T02:26:04;15.30;99.90
10247;DHT22;5168;47.854;7.944;2022-07-29T02:28:32;15.50;99.90
10247;DHT22;5168;47.854;7.944;2022-07-29T02:31:01;15.90;99.90
10247;DHT22;5168;47.854;7.944;2022-07-29T02:33:28;15.50;99.90
10247;DHT22;5168;47.854;7.944;2022-07-29T02:35:55;15.90;99.90
10247;DHT22;5168;47.854;7.944;2022-07-29T02:38:22;14.90;99.90
10247;DHT22;5168;47.854;7.944;2022-07-29T02:41:12;15.40;99.90
10247;DHT22;5168;47.854;7.944;2022-07-29T02:43:39;15.90;99.90
10247;DHT22;5168;47.854;7.944;2022-07-29T02:46:10;15.50;99.90
10247;DHT22;5168;47.854;7.944;2022-07-29T02:48:48;15.80;99.90
10247;DHT22;5168;47.854;7.944;2022-07-29T02:51:21;15.40;99.90
10247;DHT22;5168;47.854;7.944;2022-07-29T02:53:51;14.90;99.90
10247;DHT22;5168;47.854;7.944;2022-07-29T02:56:17;15.40;99.90
10247;DHT22;5168;47.854;7.944;2022-07-29T02:58:49;14.80;99.90
10247;DHT22;5168;47.854;7.944;2022-07-29T03:01:23;15.40;99.90
10247;DHT22;5168;47.854;7.944;2022-07-29T03:03:51;15.30;99.90
10247;DHT22;5168;47.854;7.944;2022-07-29T03:06:20;15.20;99.90
10247;DHT22;5168;47.854;7.944;2022-07-29T03:08:46;15.20;99.90
10247;DHT22;5168;47.854;7.944;2022-07-29T03:11:13;15.20;99.90
10247;DHT22;5168;47.854;7.944;2022-07-29T03:13:40;15.50;99.90
10247;DHT22;5168;47.854;7.944;2022-07-29T03:18:32;15.60;99.90
10247;DHT22;5168;47.854;7.944;2022-07-29T03:20:58;15.50;99.90
10247;DHT22;5168;47.854;7.944;2022-07-29T03:23:24;15.10;99.90
10247;DHT22;5168;47.854;7.944;2022-07-29T03:25:51;15.60;99.90
10247;DHT22;5168;47.854;7.944;2022-07-29T03:30:43;15.10;99.90
10247;DHT22;5168;47.854;7.944;2022-07-29T03:35:34;15.20;99.90
10247;DHT22;5168;47.854;7.944;2022-07-29T03:40:32;15.20;99.90
10247;DHT22;5168;47.854;7.944;2022-07-29T03:42:59;14.90;99.90
10247;DHT22;5168;47.854;7.944;2022-07-29T03:45:26;15.70;99.90
10247;DHT22;5168;47.854;7.944;2022-07-29T03:48:01;14.80;99.90
10247;DHT22;5168;47.854;7.944;2022-07-29T03:50:28;15.70;99.90
10247;DHT22;5168;47.854;7.944;2022-07-29T03:52:54;14.90;99.90
10247;DHT22;5168;47.854;7.944;2022-07-29T03:55:19;14.70;99.90
10247;DHT22;5168;47.854;7.944;2022-07-29T03:57:46;15.20;99.90
10247;DHT22;5168;47.854;7.944;2022-07-29T04:00:13;15.10;99.90
10247;DHT22;5168;47.854;7.944;2022-07-29T04:02:40;14.80;99.90
10247;DHT22;5168;47.854;7.944;2022-07-29T04:05:13;15.40;99.90
10247;DHT22;5168;47.854;7.944;2022-07-29T04:07:39;15.00;99.90
10247;DHT22;5168;47.854;7.944;2022-07-29T04:10:08;15.40;99.90
10247;DHT22;5168;47.854;7.944;2022-07-29T04:12:34;15.60;99.90
10247;DHT22;5168;47.854;7.944;2022-07-29T04:14:59;15.50;99.90
10247;DHT22;5168;47.854;7.944;2022-07-29T04:17:25;14.90;99.90
10247;DHT22;5168;47.854;7.944;2022-07-29T04:19:50;15.80;99.90
10247;DHT22;5168;47.854;7.944;2022-07-29T04:24:42;15.80;99.90
10247;DHT22;5168;47.854;7.944;2022-07-29T04:31:59;15.60;99.90
10247;DHT22;5168;47.854;7.944;2022-07-29T04:34:24;15.80;99.90
10247;DHT22;5168;47.854;7.944;2022-07-29T04:36:50;15.40;99.90
10247;DHT22;5168;47.854;7.944;2022-07-29T04:39:15;16.20;99.90
10247;DHT22;5168;47.854;7.944;2022-07-29T04:41:43;15.20;99.90
10247;DHT22;5168;47.854;7.944;2022-07-29T04:44:08;16.00;99.90
10247;DHT22;5168;47.854;7.944;2022-07-29T04:46:35;15.90;99.90
10247;DHT22;5168;47.854;7.944;2022-07-29T04:56:18;15.70;99.90
10247;DHT22;5168;47.854;7.944;2022-07-29T05:01:10;16.60;99.90
10247;DHT22;5168;47.854;7.944;2022-07-29T05:08:27;16.20;99.90
10247;DHT22;5168;47.854;7.944;2022-07-29T05:15:45;17.30;99.90
10247;DHT22;5168;47.854;7.944;2022-07-29T05:25:29;16.90;99.90
10247;DHT22;5168;47.854;7.944;2022-07-29T05:27:55;16.60;99.90
10247;DHT22;5168;47.854;7.944;2022-07-29T05:30:21;16.90;99.90
10247;DHT22;5168;47.854;7.944;2022-07-29T05:35:14;16.80;99.90
10247;DHT22;5168;47.854;7.944;2022-07-29T05:37:40;17.10;99.90
10247;DHT22;5168;47.854;7.944;2022-07-29T05:40:06;16.20;99.90
10247;DHT22;5168;47.854;7.944;2022-07-29T05:49:50;17.20;99.90
10247;DHT22;5168;47.854;7.944;2022-07-29T05:54:42;17.40;99.90
10247;DHT22;5168;47.854;7.944;2022-07-29T05:57:08;17.80;99.90
10247;DHT22;5168;47.854;7.944;2022-07-29T05:59:37;17.50;99.90
10247;DHT22;5168;47.854;7.944;2022-07-29T06:02:03;17.30;99.90
10247;DHT22;5168;47.854;7.944;2022-07-29T06:04:30;17.10;99.90
10247;DHT22;5168;47.854;7.944;2022-07-29T06:09:22;16.90;99.90
10247;DHT22;5168;47.854;7.944;2022-07-29T06:11:48;16.90;99.90
10247;DHT22;5168;47.854;7.944;2022-07-29T06:14:13;17.90;99.90
10247;DHT22;5168;47.854;7.944;2022-07-29T06:19:05;17.80;99.90
10247;DHT22;5168;47.854;7.944;2022-07-29T06:21:30;17.60;99.90
10247;DHT22;5168;47.854;7.944;2022-07-29T06:26:22;17.50;99.90
10247;DHT22;5168;47.854;7.944;2022-07-29T06:28:48;18.00;99.90
10247;DHT22;5168;47.854;7.944;2022-07-29T06:33:40;17.90;99.90
10247;DHT22;5168;47.854;7.944;2022-07-29T06:36:05;17.90;99.90
10247;DHT22;5168;47.854;7.944;2022-07-29T06:38:32;18.30;99.90
10247;DHT22;5168;47.854;7.944;2022-07-29T06:40:59;17.90;99.90
10247;DHT22;5168;47.854;7.944;2022-07-29T06:43:34;18.30;99.90
10247;DHT22;5168;47.854;7.944;2022-07-29T06:46:03;17.50;99.90
10247;DHT22;5168;47.854;7.944;2022-07-29T06:48:28;18.60;99.90
10247;DHT22;5168;47.854;7.944;2022-07-29T06:53:20;18.30;99.90
10247;DHT22;5168;47.854;7.944;2022-07-29T06:58:12;18.40;99.90
10247;DHT22;5168;47.854;7.944;2022-07-29T07:03:05;19.70;99.90
10247;DHT22;5168;47.854;7.944;2022-07-29T07:10:23;19.90;99.90
10247;DHT22;5168;47.854;7.944;2022-07-29T07:12:48;19.50;99.90
10247;DHT22;5168;47.854;7.944;2022-07-29T07:20:06;19.00;99.90
10247;DHT22;5168;47.854;7.944;2022-07-29T07:27:24;18.40;99.90
10247;DHT22;5168;47.854;7.944;2022-07-29T07:29:49;18.80;99.90
10247;DHT22;5168;47.854;7.944;2022-07-29T07:34:42;18.70;99.90
10247;DHT22;5168;47.854;7.944;2022-07-29T07:37:08;18.90;99.90
10247;DHT22;5168;47.854;7.944;2022-07-29T07:39:34;18.90;99.90
10247;DHT22;5168;47.854;7.944;2022-07-29T07:44:25;18.90;99.90
10247;DHT22;5168;47.854;7.944;2022-07-29T07:46:51;18.00;99.90
10247;DHT22;5168;47.854;7.944;2022-07-29T07:51:43;18.50;99.90
10247;DHT22;5168;47.854;7.944;2022-07-29T07:56:35;17.70;99.90
10247;DHT22;5168;47.854;7.944;2022-07-29T08:03:53;18.00;99.90
10247;DHT22;5168;47.854;7.944;2022-07-29T08:08:44;18.00;99.90
10247;DHT22;5168;47.854;7.944;2022-07-29T08:11:10;17.70;99.90
10247;DHT22;5168;47.854;7.944;2022-07-29T08:13:36;17.60;99.90
10247;DHT22;5168;47.854;7.944;2022-07-29T08:16:03;17.60;99.90
10247;DHT22;5168;47.854;7.944;2022-07-29T08:18:39;17.80;99.90
10247;DHT22;5168;47.854;7.944;2022-07-29T08:21:05;17.50;99.90
10247;DHT22;5168;47.854;7.944;2022-07-29T08:23:31;18.00;99.90
10247;DHT22;5168;47.854;7.944;2022-07-29T08:26:12;17.80;99.90
10247;DHT22;5168;47.854;7.944;2022-07-29T08:28:39;18.00;99.90
10247;DHT22;5168;47.854;7.944;2022-07-29T08:31:05;18.00;99.90
10247;DHT22;5168;47.854;7.944;2022-07-29T08:33:30;18.40;99.90
10247;DHT22;5168;47.854;7.944;2022-07-29T08:35:56;17.90;99.90
10247;DHT22;5168;47.854;7.944;2022-07-29T08:38:21;18.20;99.90
10247;DHT22;5168;47.854;7.944;2022-07-29T08:40:47;17.60;99.90
10247;DHT22;5168;47.854;7.944;2022-07-29T08:43:13;18.40;99.90
10247;DHT22;5168;47.854;7.944;2022-07-29T08:45:48;17.70;99.90
10247;DHT22;5168;47.854;7.944;2022-07-29T08:48:15;18.50;99.90
10247;DHT22;5168;47.854;7.944;2022-07-29T08:50:42;18.20;99.90
10247;DHT22;5168;47.854;7.944;2022-07-29T08:53:11;18.60;99.90
10247;DHT22;5168;47.854;7.944;2022-07-29T08:55:40;18.60;99.90
10247;DHT22;5168;47.854;7.944;2022-07-29T09:03:01;18.20;99.90
10247;DHT22;5168;47.854;7.944;2022-07-29T09:05:27;18.60;99.90
10247;DHT22;5168;47.854;7.944;2022-07-29T09:07:54;18.20;99.90
10247;DHT22;5168;47.854;7.944;2022-07-29T09:10:20;18.10;99.90
10247;DHT22;5168;47.854;7.944;2022-07-29T09:12:46;18.40;99.90
10247;DHT22;5168;47.854;7.944;2022-07-29T09:15:11;18.60;99.90
10247;DHT22;5168;47.854;7.944;2022-07-29T09:17:44;18.70;99.90
10247;DHT22;5168;47.854;7.944;2022-07-29T09:20:13;18.60;99.90
10247;DHT22;5168;47.854;7.944;2022-07-29T09:25:05;19.10;99.90
10247;DHT22;5168;47.854;7.944;2022-07-29T09:27:30;18.90;99.90
10247;DHT22;5168;47.854;7.944;2022-07-29T09:29:58;19.90;99.90
10247;DHT22;5168;47.854;7.944;2022-07-29T09:32:24;20.20;99.90
10247;DHT22;5168;47.854;7.944;2022-07-29T09:34:49;20.90;99.90
10247;DHT22;5168;47.854;7.944;2022-07-29T09:37:28;21.20;99.90
10247;DHT22;5168;47.854;7.944;2022-07-29T09:39:54;21.20;99.90
10247;DHT22;5168;47.854;7.944;2022-07-29T09:42:29;21.80;99.90
10247;DHT22;5168;47.854;7.944;2022-07-29T09:44:58;21.20;99.90
10247;DHT22;5168;47.854;7.944;2022-07-29T09:47:44;21.20;99.90
10247;DHT22;5168;47.854;7.944;2022-07-29T09:50:13;21.70;99.90
10247;DHT22;5168;47.854;7.944;2022-07-29T09:52:50;21.60;99.90
10247;DHT22;5168;47.854;7.944;2022-07-29T09:55:16;21.50;99.90
10247;DHT22;5168;47.854;7.944;2022-07-29T09:57:42;21.70;99.90
10247;DHT22;5168;47.854;7.944;2022-07-29T10:00:10;21.60;99.90
10247;DHT22;5168;47.854;7.944;2022-07-29T10:02:39;21.40;99.90
10247;DHT22;5168;47.854;7.944;2022-07-29T10:05:16;21.50;99.90
10247;DHT22;5168;47.854;7.944;2022-07-29T10:07:44;21.70;99.90
10247;DHT22;5168;47.854;7.944;2022-07-29T10:10:10;22.10;99.90
10247;DHT22;5168;47.854;7.944;2022-07-29T10:12:49;21.90;99.90
10247;DHT22;5168;47.854;7.944;2022-07-29T10:15:15;21.50;99.90
10247;DHT22;5168;47.854;7.944;2022-07-29T10:20:08;21.70;99.90
10247;DHT22;5168;47.854;7.944;2022-07-29T10:22:34;22.10;99.90
10247;DHT22;5168;47.854;7.944;2022-07-29T10:24:59;21.80;99.90
10247;DHT22;5168;47.854;7.944;2022-07-29T10:32:37;21.50;99.90
10247;DHT22;5168;47.854;7.944;2022-07-29T10:40:54;22.10;99.90
10247;DHT22;5168;47.854;7.944;2022-07-29T10:43:43;22.10;99.90
10247;DHT22;5168;47.854;7.944;2022-07-29T10:49:29;21.80;99.90
10247;DHT22;5168;47.854;7.944;2022-07-29T10:56:41;22.40;99.90
10247;DHT22;5168;47.854;7.944;2022-07-29T11:01:46;22.30;99.90
10247;DHT22;5168;47.854;7.944;2022-07-29T11:04:12;22.20;99.90
10247;DHT22;5168;47.854;7.944;2022-07-29T11:09:25;22.60;99.90
10247;DHT22;5168;47.854;7.944;2022-07-29T11:14:18;22.70;99.90
10247;DHT22;5168;47.854;7.944;2022-07-29T11:17:01;22.50;99.90
10247;DHT22;5168;47.854;7.944;2022-07-29T11:19:28;22.80;99.90
10247;DHT22;5168;47.854;7.944;2022-07-29T11:21:53;22.30;99.90
10247;DHT22;5168;47.854;7.944;2022-07-29T11:24:24;22.70;99.90
10247;DHT22;5168;47.854;7.944;2022-07-29T11:27:17;22.30;99.90
10247;DHT22;5168;47.854;7.944;2022-07-29T11:29:56;21.80;99.90
10247;DHT22;5168;47.854;7.944;2022-07-29T11:32:24;22.10;99.90
10247;DHT22;5168;47.854;7.944;2022-07-29T11:47:40;20.60;99.90
10247;DHT22;5168;47.854;7.944;2022-07-29T11:50:09;22.80;99.90
10247;DHT22;5168;47.854;7.944;2022-07-29T11:52:40;21.00;99.90
10247;DHT22;5168;47.854;7.944;2022-07-29T11:55:16;21.40;99.90
10247;DHT22;5168;47.854;7.944;2022-07-29T11:57:47;21.10;99.90
10247;DHT22;5168;47.854;7.944;2022-07-29T12:00:30;20.90;99.90
10247;DHT22;5168;47.854;7.944;2022-07-29T12:02:59;20.60;99.90
10247;DHT22;5168;47.854;7.944;2022-07-29T12:05:41;20.80;99.90
10247;DHT22;5168;47.854;7.944;2022-07-29T12:08:11;20.80;99.90
10247;DHT22;5168;47.854;7.944;2022-07-29T12:10:37;21.00;99.90
10247;DHT22;5168;47.854;7.944;2022-07-29T12:20:24;20.00;99.90
10247;DHT22;5168;47.854;7.944;2022-07-29T12:25:15;19.40;99.90
10247;DHT22;5168;47.854;7.944;2022-07-29T12:30:11;19.70;99.90
10247;DHT22;5168;47.854;7.944;2022-07-29T12:32:47;20.20;99.90
10247;DHT22;5168;47.854;7.944;2022-07-29T12:35:19;19.70;99.90
10247;DHT22;5168;47.854;7.944;2022-07-29T12:37:47;19.30;99.90
10247;DHT22;5168;47.854;7.944;2022-07-29T12:40:15;20.60;99.90
10247;DHT22;5168;47.854;7.944;2022-07-29T12:45:30;19.00;99.90
10247;DHT22;5168;47.854;7.944;2022-07-29T12:47:56;19.40;99.90
10247;DHT22;5168;47.854;7.944;2022-07-29T12:52:47;19.30;99.90
10247;DHT22;5168;47.854;7.944;2022-07-29T12:57:50;18.50;99.90
10247;DHT22;5168;47.854;7.944;2022-07-29T13:00:24;18.70;99.90
10247;DHT22;5168;47.854;7.944;2022-07-29T13:02:57;18.90;99.90
10247;DHT22;5168;47.854;7.944;2022-07-29T13:05:23;18.60;99.90
10247;DHT22;5168;47.854;7.944;2022-07-29T13:07:50;19.00;99.90
10247;DHT22;5168;47.854;7.944;2022-07-29T13:13:05;18.70;99.90
10247;DHT22;5168;47.854;7.944;2022-07-29T13:15:32;19.80;99.90
10247;DHT22;5168;47.854;7.944;2022-07-29T13:17:58;18.80;99.90
10247;DHT22;5168;47.854;7.944;2022-07-29T13:20:25;19.20;99.90
10247;DHT22;5168;47.854;7.944;2022-07-29T13:22:53;19.30;99.90
10247;DHT22;5168;47.854;7.944;2022-07-29T13:25:31;19.10;99.90
10247;DHT22;5168;47.854;7.944;2022-07-29T13:27:58;19.70;99.90
10247;DHT22;5168;47.854;7.944;2022-07-29T13:30:23;19.20;99.90
10247;DHT22;5168;47.854;7.944;2022-07-29T13:32:50;19.20;99.90
10247;DHT22;5168;47.854;7.944;2022-07-29T13:37:42;19.60;99.90
10247;DHT22;5168;47.854;7.944;2022-07-29T13:40:09;19.10;99.90
10247;DHT22;5168;47.854;7.944;2022-07-29T13:49:54;19.30;99.90
10247;DHT22;5168;47.854;7.944;2022-07-29T13:54:46;19.70;99.90
10247;DHT22;5168;47.854;7.944;2022-07-29T13:57:12;19.00;99.90
10247;DHT22;5168;47.854;7.944;2022-07-29T13:59:39;19.80;99.90
10247;DHT22;5168;47.854;7.944;2022-07-29T14:02:05;19.90;99.90
10247;DHT22;5168;47.854;7.944;2022-07-29T14:04:31;19.40;99.90
10247;DHT22;5168;47.854;7.944;2022-07-29T14:14:17;20.20;99.90
10247;DHT22;5168;47.854;7.944;2022-07-29T14:16:42;19.20;99.90
10247;DHT22;5168;47.854;7.944;2022-07-29T14:19:08;19.60;99.90
10247;DHT22;5168;47.854;7.944;2022-07-29T14:24:00;18.90;99.90
10247;DHT22;5168;47.854;7.944;2022-07-29T14:31:17;19.20;99.90
10247;DHT22;5168;47.854;7.944;2022-07-29T14:33:43;19.50;99.90
10247;DHT22;5168;47.854;7.944;2022-07-29T14:36:08;19.80;99.90
10247;DHT22;5168;47.854;7.944;2022-07-29T14:38:35;19.70;99.90
10247;DHT22;5168;47.854;7.944;2022-07-29T14:50:44;19.50;99.90
10247;DHT22;5168;47.854;7.944;2022-07-29T14:53:10;19.40;99.90
10247;DHT22;5168;47.854;7.944;2022-07-29T14:58:03;19.40;99.90
10247;DHT22;5168;47.854;7.944;2022-07-29T15:00:28;19.70;99.90
10247;DHT22;5168;47.854;7.944;2022-07-29T15:02:58;19.80;99.90
10247;DHT22;5168;47.854;7.944;2022-07-29T15:05:23;19.20;99.90
10247;DHT22;5168;47.854;7.944;2022-07-29T15:07:49;18.80;99.90
10247;DHT22;5168;47.854;7.944;2022-07-29T15:24:50;19.00;99.90
10247;DHT22;5168;47.854;7.944;2022-07-29T15:27:16;18.70;99.90
10247;DHT22;5168;47.854;7.944;2022-07-29T15:29:42;19.00;99.90
10247;DHT22;5168;47.854;7.944;2022-07-29T15:34:34;18.90;99.90
10247;DHT22;5168;47.854;7.944;2022-07-29T15:39:27;18.70;99.90
10247;DHT22;5168;47.854;7.944;2022-07-29T15:41:53;18.30;99.90
10247;DHT22;5168;47.854;7.944;2022-07-29T15:44:19;18.80;99.90
10247;DHT22;5168;47.854;7.944;2022-07-29T15:46:45;18.40;99.90
10247;DHT22;5168;47.854;7.944;2022-07-29T15:49:37;18.60;99.90
10247;DHT22;5168;47.854;7.944;2022-07-29T15:52:08;19.20;99.90
10247;DHT22;5168;47.854;7.944;2022-07-29T15:54:36;18.90;99.90
10247;DHT22;5168;47.854;7.944;2022-07-29T15:57:04;18.80;99.90
10247;DHT22;5168;47.854;7.944;2022-07-29T15:59:30;18.70;99.90
10247;DHT22;5168;47.854;7.944;2022-07-29T16:09:14;18.60;99.90
10247;DHT22;5168;47.854;7.944;2022-07-29T16:11:40;18.50;99.90
10247;DHT22;5168;47.854;7.944;2022-07-29T16:14:06;19.00;99.90
10247;DHT22;5168;47.854;7.944;2022-07-29T16:21:24;18.70;99.90
10247;DHT22;5168;47.854;7.944;2022-07-29T16:23:50;18.80;99.90
10247;DHT22;5168;47.854;7.944;2022-07-29T16:26:15;18.50;99.90
10247;DHT22;5168;47.854;7.944;2022-07-29T16:28:41;18.60;99.90
10247;DHT22;5168;47.854;7.944;2022-07-29T16:31:07;18.40;99.90
10247;DHT22;5168;47.854;7.944;2022-07-29T16:35:59;18.60;99.90
10247;DHT22;5168;47.854;7.944;2022-07-29T16:38:24;19.00;99.90
10247;DHT22;5168;47.854;7.944;2022-07-29T16:40:50;19.20;99.90
10247;DHT22;5168;47.854;7.944;2022-07-29T16:48:07;18.60;99.90
10247;DHT22;5168;47.854;7.944;2022-07-29T16:50:33;18.70;99.90
10247;DHT22;5168;47.854;7.944;2022-07-29T16:52:59;19.30;99.90
10247;DHT22;5168;47.854;7.944;2022-07-29T17:00:20;18.80;99.90
10247;DHT22;5168;47.854;7.944;2022-07-29T17:02:46;18.70;99.90
10247;DHT22;5168;47.854;7.944;2022-07-29T17:05:12;19.00;99.90
10247;DHT22;5168;47.854;7.944;2022-07-29T17:07:39;18.20;99.90
10247;DHT22;5168;47.854;7.944;2022-07-29T17:10:05;18.70;99.90
10247;DHT22;5168;47.854;7.944;2022-07-29T17:12:36;18.20;99.90
10247;DHT22;5168;47.854;7.944;2022-07-29T17:15:08;18.30;99.90
10247;DHT22;5168;47.854;7.944;2022-07-29T17:22:26;17.60;99.90
10247;DHT22;5168;47.854;7.944;2022-07-29T17:27:18;17.70;99.90
10247;DHT22;5168;47.854;7.944;2022-07-29T17:29:44;18.30;99.90
10247;DHT22;5168;47.854;7.944;2022-07-29T17:32:10;17.80;99.90
10247;DHT22;5168;47.854;7.944;2022-07-29T17:34:37;17.80;99.90
10247;DHT22;5168;47.854;7.944;2022-07-29T17:37:04;17.80;99.90
10247;DHT22;5168;47.854;7.944;2022-07-29T17:46:49;17.80;99.90
10247;DHT22;5168;47.854;7.944;2022-07-29T17:51:41;17.90;99.90
10247;DHT22;5168;47.854;7.944;2022-07-29T18:01:27;17.00;99.90
10247;DHT22;5168;47.854;7.944;2022-07-29T18:11:12;17.60;99.90
10247;DHT22;5168;47.854;7.944;2022-07-29T18:16:06;17.30;99.90
10247;DHT22;5168;47.854;7.944;2022-07-29T18:18:32;17.20;99.90
10247;DHT22;5168;47.854;7.944;2022-07-29T18:20:58;17.00;99.90
10247;DHT22;5168;47.854;7.944;2022-07-29T18:25:49;17.00;99.90
10247;DHT22;5168;47.854;7.944;2022-07-29T18:28:15;17.40;99.90
10247;DHT22;5168;47.854;7.944;2022-07-29T18:30:41;17.60;99.90
10247;DHT22;5168;47.854;7.944;2022-07-29T18:35:37;17.80;99.90
10247;DHT22;5168;47.854;7.944;2022-07-29T18:38:02;16.90;99.90
10247;DHT22;5168;47.854;7.944;2022-07-29T18:40:30;17.40;99.90
10247;DHT22;5168;47.854;7.944;2022-07-29T18:42:56;17.60;99.90
10247;DHT22;5168;47.854;7.944;2022-07-29T18:47:48;16.80;99.90
10247;DHT22;5168;47.854;7.944;2022-07-29T18:50:14;17.70;99.90
10247;DHT22;5168;47.854;7.944;2022-07-29T18:55:07;16.60;99.90
10247;DHT22;5168;47.854;7.944;2022-07-29T18:57:33;16.50;99.90
10247;DHT22;5168;47.854;7.944;2022-07-29T18:59:59;17.30;99.90
10247;DHT22;5168;47.854;7.944;2022-07-29T19:02:24;16.90;99.90
10247;DHT22;5168;47.854;7.944;2022-07-29T19:07:17;17.40;99.90
10247;DHT22;5168;47.854;7.944;2022-07-29T19:09:44;16.20;99.90
10247;DHT22;5168;47.854;7.944;2022-07-29T19:12:10;16.50;99.90
10247;DHT22;5168;47.854;7.944;2022-07-29T19:14:36;16.40;99.90
10247;DHT22;5168;47.854;7.944;2022-07-29T19:29:12;16.60;99.90
10247;DHT22;5168;47.854;7.944;2022-07-29T19:31:39;16.20;99.90
10247;DHT22;5168;47.854;7.944;2022-07-29T19:34:05;16.80;99.90
10247;DHT22;5168;47.854;7.944;2022-07-29T19:36:30;16.90;99.90
10247;DHT22;5168;47.854;7.944;2022-07-29T19:46:14;16.80;99.90
10247;DHT22;5168;47.854;7.944;2022-07-29T19:48:39;16.70;99.90
10247;DHT22;5168;47.854;7.944;2022-07-29T20:08:07;16.30;99.90
10247;DHT22;5168;47.854;7.944;2022-07-29T20:10:33;16.30;99.90
10247;DHT22;5168;47.854;7.944;2022-07-29T20:12:59;15.70;99.90
10247;DHT22;5168;47.854;7.944;2022-07-29T20:15:24;15.70;99.90
10247;DHT22;5168;47.854;7.944;2022-07-29T20:22:42;16.20;99.90
10247;DHT22;5168;47.854;7.944;2022-07-29T20:25:08;16.30;99.90
10247;DHT22;5168;47.854;7.944;2022-07-29T20:27:35;15.80;99.90
10247;DHT22;5168;47.854;7.944;2022-07-29T20:30:04;15.80;99.90
10247;DHT22;5168;47.854;7.944;2022-07-29T20:42:14;16.10;99.90
10247;DHT22;5168;47.854;7.944;2022-07-29T20:44:40;16.00;99.90
10247;DHT22;5168;47.854;7.944;2022-07-29T20:56:50;16.20;99.90
10247;DHT22;5168;47.854;7.944;2022-07-29T20:59:16;16.40;99.90
10247;DHT22;5168;47.854;7.944;2022-07-29T21:01:41;16.40;99.90
10247;DHT22;5168;47.854;7.944;2022-07-29T21:18:45;16.00;99.90
10247;DHT22;5168;47.854;7.944;2022-07-29T21:21:13;15.70;99.90
10247;DHT22;5168;47.854;7.944;2022-07-29T21:23:39;15.70;99.90
10247;DHT22;5168;47.854;7.944;2022-07-29T21:26:05;15.90;99.90
10247;DHT22;5168;47.854;7.944;2022-07-29T21:28:31;15.90;99.90
10247;DHT22;5168;47.854;7.944;2022-07-29T21:31:05;15.80;99.90
10247;DHT22;5168;47.854;7.944;2022-07-29T21:33:32;16.20;99.90
10247;DHT22;5168;47.854;7.944;2022-07-29T21:35:58;16.40;99.90
10247;DHT22;5168;47.854;7.944;2022-07-29T21:38:24;16.00;99.90
10247;DHT22;5168;47.854;7.944;2022-07-29T21:40:51;15.80;99.90
10247;DHT22;5168;47.854;7.944;2022-07-29T21:43:17;15.60;99.90
10247;DHT22;5168;47.854;7.944;2022-07-29T21:45:44;15.60;99.90
10247;DHT22;5168;47.854;7.944;2022-07-29T21:48:14;15.50;99.90
10247;DHT22;5168;47.854;7.944;2022-07-29T21:50:40;15.70;99.90
10247;DHT22;5168;47.854;7.944;2022-07-29T22:02:53;15.50;99.90
10247;DHT22;5168;47.854;7.944;2022-07-29T22:05:19;15.50;99.90
10247;DHT22;5168;47.854;7.944;2022-07-29T22:15:03;14.90;99.90
10247;DHT22;5168;47.854;7.944;2022-07-29T22:17:29;15.60;99.90
10247;DHT22;5168;47.854;7.944;2022-07-29T22:22:22;15.10;99.90
10247;DHT22;5168;47.854;7.944;2022-07-29T22:27:14;14.70;99.90
10247;DHT22;5168;47.854;7.944;2022-07-29T22:29:39;15.60;99.90
10247;DHT22;5168;47.854;7.944;2022-07-29T22:32:05;14.90;99.90
10247;DHT22;5168;47.854;7.944;2022-07-29T22:36:57;15.00;99.90
10247;DHT22;5168;47.854;7.944;2022-07-29T22:39:23;14.80;99.90
10247;DHT22;5168;47.854;7.944;2022-07-29T22:46:41;14.70;99.90
10247;DHT22;5168;47.854;7.944;2022-07-29T22:49:06;14.80;99.90
10247;DHT22;5168;47.854;7.944;2022-07-29T22:51:32;14.70;99.90
10247;DHT22;5168;47.854;7.944;2022-07-29T23:01:17;15.50;99.90
10247;DHT22;5168;47.854;7.944;2022-07-29T23:13:26;15.10;99.90
10247;DHT22;5168;47.854;7.944;2022-07-29T23:15:52;14.80;99.90
10247;DHT22;5168;47.854;7.944;2022-07-29T23:18:17;14.40;99.90
10247;DHT22;5168;47.854;7.944;2022-07-29T23:20:43;15.20;99.90
10247;DHT22;5168;47.854;7.944;2022-07-29T23:23:09;15.10;99.90
10247;DHT22;5168;47.854;7.944;2022-07-29T23:25:35;14.70;99.90